Аэропорт: Черновцы. Черновцы

ICAO: UKLN

METAR:
2019-09-16 01:30:00
UKLN 160130Z 21001MPS CAVOK 10/07 Q1018 R15/09//70 NOSIG
METAR:
2019-09-15 23:03:00
TAF UKLN 152303Z 1600/1609 VRB01MPS 9999 SCT040 TEMPO 1600/1609 30005MPS